createdAt,value
2019-02-23T00:01:51.563Z,16.01
2019-02-23T00:04:23.298Z,15.63
2019-02-23T00:06:55.159Z,15.61
2019-02-23T00:09:26.804Z,15.61
2019-02-23T00:11:58.533Z,15.81
2019-02-23T00:14:29.945Z,15.67
2019-02-23T00:17:01.596Z,15.73
2019-02-23T00:19:33.372Z,15.73
2019-02-23T00:22:05.266Z,15.57
2019-02-23T00:24:37.229Z,15.69
2019-02-23T00:27:08.883Z,15.74
2019-02-23T00:29:40.353Z,15.74
2019-02-23T00:32:12.232Z,15.76
2019-02-23T00:34:44.060Z,15.37
2019-02-23T00:37:15.697Z,15.71
2019-02-23T00:39:47.231Z,15.72
2019-02-23T00:42:18.669Z,15.78
2019-02-23T00:44:50.154Z,15.78
2019-02-23T00:47:21.624Z,15.84
2019-02-23T00:49:53.229Z,15.45
2019-02-23T00:52:24.982Z,15.42
2019-02-23T00:54:56.495Z,15.42
2019-02-23T00:57:28.374Z,15.51
2019-02-23T00:59:59.945Z,15.60
2019-02-23T01:02:31.852Z,15.36
2019-02-23T01:05:03.392Z,15.36
2019-02-23T01:07:35.048Z,15.45
2019-02-23T01:10:07.201Z,15.44
2019-02-23T01:12:38.868Z,15.09
2019-02-23T01:15:11.720Z,15.14
2019-02-23T01:17:43.689Z,15.14
2019-02-23T01:20:15.553Z,15.32
2019-02-23T01:22:47.233Z,15.13
2019-02-23T01:25:18.965Z,15.30
2019-02-23T01:27:51.102Z,15.30
2019-02-23T01:30:22.830Z,15.13
2019-02-23T01:32:54.589Z,15.13
2019-02-23T01:35:26.159Z,15.25
2019-02-23T01:37:57.832Z,15.23
2019-02-23T01:40:30.037Z,15.37
2019-02-23T01:43:01.830Z,15.37
2019-02-23T01:45:42.031Z,15.25
2019-02-23T01:48:07.160Z,15.25
2019-02-23T01:50:39.139Z,15.35
2019-02-23T01:53:10.798Z,15.35
2019-02-23T01:55:42.405Z,15.22
2019-02-23T01:58:14.273Z,15.47
2019-02-23T02:00:46.042Z,15.47
2019-02-23T02:03:18.128Z,15.79
2019-02-23T02:05:51.032Z,16.04
2019-02-23T02:08:22.623Z,16.24
2019-02-23T02:10:54.301Z,16.24
2019-02-23T02:13:25.829Z,16.23
2019-02-23T02:15:57.472Z,16.56
2019-02-23T02:18:29.133Z,16.78
2019-02-23T02:21:00.938Z,16.73
2019-02-23T02:23:32.603Z,17.01
2019-02-23T02:26:04.353Z,17.01
2019-02-23T02:28:35.918Z,17.14
2019-02-23T02:31:07.533Z,17.39
2019-02-23T02:34:00.221Z,17.11
2019-02-23T02:36:31.830Z,17.09
2019-02-23T02:39:03.542Z,17.40
2019-02-23T02:41:37.016Z,17.28
2019-02-23T02:44:08.536Z,17.57
2019-02-23T02:46:40.251Z,17.71
2019-02-23T02:49:11.862Z,17.72
2019-02-23T02:51:43.655Z,17.85
2019-02-23T02:54:15.268Z,17.89
2019-02-23T02:56:47.111Z,17.89
2019-02-23T02:59:18.816Z,18.05
2019-02-23T03:01:50.503Z,17.75
2019-02-23T03:04:22.268Z,18.20
2019-02-23T03:06:54.084Z,18.20
2019-02-23T03:09:25.485Z,18.31
2019-02-23T03:11:57.181Z,18.20
2019-02-23T03:14:28.829Z,18.43
2019-02-23T03:17:00.624Z,18.42
2019-02-23T03:19:32.288Z,18.52
2019-02-23T03:22:03.911Z,18.42
2019-02-23T03:24:35.584Z,18.60
2019-02-23T03:27:07.461Z,18.55
2019-02-23T03:29:38.829Z,18.55
2019-02-23T03:32:10.467Z,18.45
2019-02-23T03:34:42.108Z,18.70
2019-02-23T03:37:13.781Z,18.87
2019-02-23T03:39:45.480Z,18.87
2019-02-23T03:42:17.381Z,18.72
2019-02-23T03:44:49.343Z,18.80
2019-02-23T03:47:21.166Z,18.91
2019-02-23T03:49:52.792Z,18.91
2019-02-23T03:52:24.893Z,18.89
2019-02-23T03:54:57.178Z,18.89
2019-02-23T03:57:29.091Z,18.91
2019-02-23T04:00:01.152Z,19.08
2019-02-23T04:02:32.838Z,19.27
2019-02-23T04:05:04.501Z,19.19
2019-02-23T04:07:36.341Z,19.19
2019-02-23T04:10:08.519Z,19.06
2019-02-23T04:12:40.526Z,19.06
2019-02-23T04:15:12.428Z,19.08
2019-02-23T04:17:44.084Z,19.44
2019-02-23T04:20:15.830Z,19.52
2019-02-23T04:22:47.556Z,19.59
2019-02-23T04:25:18.995Z,19.59
2019-02-23T04:27:50.859Z,19.65
2019-02-23T04:30:22.576Z,19.65
2019-02-23T04:32:54.428Z,19.25
2019-02-23T04:35:27.171Z,19.41
2019-02-23T04:37:58.744Z,19.62
2019-02-23T04:40:30.223Z,19.62
2019-02-23T04:43:02.505Z,19.32
2019-02-23T04:45:34.451Z,19.63
2019-02-23T04:48:06.111Z,19.63
2019-02-23T04:50:37.883Z,19.96
2019-02-23T04:53:09.669Z,20.08
2019-02-23T04:55:41.429Z,19.97
2019-02-23T04:58:13.084Z,20.39
2019-02-23T05:00:45.060Z,20.00
2019-02-23T05:03:16.861Z,20.22
2019-02-23T05:05:48.490Z,20.37
2019-02-23T05:08:20.272Z,20.13
2019-02-23T05:10:51.900Z,19.84
2019-02-23T05:13:23.579Z,20.05
2019-02-23T05:15:55.226Z,20.31
2019-02-23T05:18:26.909Z,20.40
2019-02-23T05:20:58.612Z,20.55
2019-02-23T05:23:30.347Z,20.55
2019-02-23T05:26:01.791Z,20.50
2019-02-23T05:28:33.348Z,20.61
2019-02-23T05:31:05.061Z,20.61
2019-02-23T05:33:37.001Z,20.74
2019-02-23T05:36:08.756Z,20.45
2019-02-23T05:38:40.287Z,20.46
2019-02-23T05:41:12.095Z,20.55
2019-02-23T05:43:44.071Z,20.77
2019-02-23T05:46:16.082Z,20.75
2019-02-23T05:48:47.808Z,20.75
2019-02-23T05:51:19.510Z,20.57
2019-02-23T05:53:50.872Z,20.57
2019-02-23T05:56:22.489Z,20.65
2019-02-23T05:58:54.122Z,20.47
2019-02-23T06:01:25.752Z,20.58
2019-02-23T06:03:58.930Z,20.50
2019-02-23T06:06:30.966Z,20.72
2019-02-23T06:09:02.671Z,20.69
2019-02-23T06:11:36.184Z,20.57
2019-02-23T06:14:07.895Z,20.78
2019-02-23T06:16:39.979Z,20.82
2019-02-23T06:19:11.621Z,20.81
2019-02-23T06:21:53.105Z,21.34
2019-02-23T06:24:16.354Z,21.12
2019-02-23T06:26:48.113Z,21.12
2019-02-23T06:29:19.892Z,20.94
2019-02-23T06:31:51.494Z,20.94
2019-02-23T06:34:23.881Z,21.04
2019-02-23T06:36:55.751Z,21.04
2019-02-23T06:39:29.416Z,21.36
2019-02-23T06:42:02.743Z,21.25
2019-02-23T06:44:37.724Z,21.20
2019-02-23T06:47:10.339Z,21.20
2019-02-23T06:49:42.102Z,21.17
2019-02-23T06:52:13.810Z,21.17
2019-02-23T06:54:45.333Z,21.35
2019-02-23T06:57:17.123Z,21.21
2019-02-23T06:59:48.643Z,21.21
2019-02-23T07:02:20.000Z,20.94
2019-02-23T07:04:51.703Z,20.86
2019-02-23T07:07:23.617Z,21.48
2019-02-23T07:09:55.279Z,21.48
2019-02-23T07:12:26.995Z,21.30
2019-02-23T07:14:58.503Z,21.28
2019-02-23T07:17:32.949Z,21.28
2019-02-23T07:20:04.593Z,21.28
2019-02-23T07:22:36.454Z,21.58
2019-02-23T07:25:08.201Z,21.31
2019-02-23T07:27:39.990Z,21.26
2019-02-23T07:30:12.372Z,21.39
2019-02-23T07:32:44.164Z,21.77
2019-02-23T07:35:15.895Z,21.71
2019-02-23T07:37:48.069Z,21.71
2019-02-23T07:40:19.547Z,21.70
2019-02-23T07:42:51.717Z,21.68
2019-02-23T07:45:23.321Z,21.68
2019-02-23T07:47:54.873Z,21.90
2019-02-23T07:50:26.468Z,21.90
2019-02-23T07:52:58.072Z,21.70
2019-02-23T07:55:33.723Z,21.66
2019-02-23T07:58:07.952Z,21.65
2019-02-23T08:00:39.563Z,21.65
2019-02-23T08:03:11.266Z,21.89
2019-02-23T08:05:42.824Z,21.89
2019-02-23T08:08:14.256Z,22.05
2019-02-23T08:10:45.728Z,21.90
2019-02-23T08:13:17.291Z,21.90
2019-02-23T08:15:49.007Z,22.08
2019-02-23T08:18:21.686Z,22.20
2019-02-23T08:20:53.156Z,22.10
2019-02-23T08:23:24.863Z,22.10
2019-02-23T08:25:56.395Z,22.10
2019-02-23T08:28:32.325Z,21.90
2019-02-23T08:31:10.090Z,22.30
2019-02-23T08:33:43.578Z,22.55
2019-02-23T08:36:19.643Z,22.55
2019-02-23T08:38:51.720Z,22.43
2019-02-23T08:41:23.425Z,22.72
2019-02-23T08:43:54.905Z,22.72
2019-02-23T08:46:26.848Z,22.33
2019-02-23T08:48:58.416Z,22.31
2019-02-23T08:51:30.572Z,22.31
2019-02-23T08:54:02.298Z,22.37
2019-02-23T08:56:34.160Z,22.31
2019-02-23T08:59:06.003Z,22.43
2019-02-23T09:01:37.805Z,22.28
2019-02-23T09:04:09.753Z,22.25
2019-02-23T09:06:41.253Z,22.35
2019-02-23T09:09:13.107Z,22.59
2019-02-23T09:11:44.916Z,22.59
2019-02-23T09:14:16.406Z,22.62
2019-02-23T09:16:48.133Z,22.76
2019-02-23T09:19:19.952Z,22.27
2019-02-23T09:21:52.023Z,22.27
2019-02-23T09:24:23.774Z,22.21
2019-02-23T09:26:55.641Z,22.32
2019-02-23T09:29:27.183Z,22.75
2019-02-23T09:31:58.938Z,22.74
2019-02-23T09:34:30.474Z,22.74
2019-02-23T09:37:02.341Z,22.80
2019-02-23T09:39:34.244Z,22.80
2019-02-23T09:42:07.778Z,22.65
2019-02-23T09:44:39.672Z,22.59
2019-02-23T09:47:11.636Z,22.78
2019-02-23T09:49:43.495Z,22.74
2019-02-23T09:52:15.456Z,22.68
2019-02-23T09:54:47.079Z,22.76
2019-02-23T09:57:19.045Z,22.83
2019-02-23T09:59:52.077Z,22.83
2019-02-23T10:02:24.193Z,22.83
2019-02-23T10:05:01.327Z,22.80
2019-02-23T10:07:32.906Z,22.80
2019-02-23T10:10:04.797Z,22.52
2019-02-23T10:12:36.856Z,22.52
2019-02-23T10:15:08.809Z,22.60
2019-02-23T10:17:40.539Z,22.86
2019-02-23T10:20:13.497Z,22.48
2019-02-23T10:22:46.429Z,22.48
2019-02-23T10:25:17.769Z,22.56
2019-02-23T10:27:49.811Z,22.56
2019-02-23T10:30:21.415Z,22.73
2019-02-23T10:32:52.805Z,22.58
2019-02-23T10:35:24.360Z,22.56
2019-02-23T10:37:55.937Z,22.87
2019-02-23T10:40:27.662Z,22.87
2019-02-23T10:42:59.418Z,22.89
2019-02-23T10:45:31.053Z,22.69
2019-02-23T10:48:02.604Z,22.69
2019-02-23T10:50:34.238Z,22.74
2019-02-23T10:53:05.795Z,22.74
2019-02-23T10:55:37.641Z,22.79
2019-02-23T10:58:09.498Z,22.76
2019-02-23T11:00:41.344Z,22.69
2019-02-23T11:03:13.106Z,22.73
2019-02-23T11:05:45.047Z,22.73
2019-02-23T11:08:16.893Z,22.67
2019-02-23T11:10:48.476Z,22.45
2019-02-23T11:13:20.238Z,22.45
2019-02-23T11:15:51.762Z,22.45
2019-02-23T11:18:25.029Z,22.44
2019-02-23T11:20:57.851Z,22.44
2019-02-23T11:23:30.079Z,22.40
2019-02-23T11:26:01.650Z,22.27
2019-02-23T11:28:33.596Z,22.27
2019-02-23T11:31:05.823Z,22.20
2019-02-23T11:33:37.570Z,22.35
2019-02-23T11:36:09.287Z,22.37
2019-02-23T11:38:41.170Z,22.38
2019-02-23T11:41:12.987Z,22.38
2019-02-23T11:43:45.845Z,22.40
2019-02-23T11:46:17.687Z,22.41
2019-02-23T11:48:49.295Z,22.28
2019-02-23T11:51:20.692Z,22.15
2019-02-23T11:53:55.311Z,22.15
2019-02-23T11:56:26.118Z,22.11
2019-02-23T11:58:57.875Z,22.01
2019-02-23T12:01:29.329Z,22.01
2019-02-23T12:04:01.084Z,21.96
2019-02-23T12:06:35.086Z,21.96
2019-02-23T12:09:10.967Z,22.06
2019-02-23T12:11:45.227Z,22.06
2019-02-23T12:14:19.115Z,22.03
2019-02-23T12:16:53.268Z,22.00
2019-02-23T12:19:32.021Z,22.00
2019-02-23T12:22:12.305Z,21.90
2019-02-23T12:24:43.222Z,21.87
2019-02-23T12:27:14.940Z,21.86
2019-02-23T12:29:47.762Z,21.71
2019-02-23T12:32:19.325Z,21.71
2019-02-23T12:34:50.954Z,21.63
2019-02-23T12:37:22.452Z,21.53
2019-02-23T12:39:54.535Z,21.53
2019-02-23T12:42:27.654Z,21.51
2019-02-23T12:44:59.757Z,21.48
2019-02-23T12:47:32.030Z,21.46
2019-02-23T12:50:03.783Z,21.42
2019-02-23T12:52:38.162Z,21.41
2019-02-23T12:55:10.263Z,21.23
2019-02-23T12:57:42.032Z,21.17
2019-02-23T13:00:14.128Z,21.17
2019-02-23T13:02:46.044Z,21.12
2019-02-23T13:05:17.939Z,21.12
2019-02-23T13:07:49.655Z,21.10
2019-02-23T13:10:21.170Z,20.94
2019-02-23T13:13:20.726Z,20.91
2019-02-23T13:16:21.772Z,20.88
2019-02-23T13:19:44.660Z,20.93
2019-02-23T13:22:59.721Z,20.86
2019-02-23T13:26:36.451Z,20.80
2019-02-23T13:29:18.824Z,20.63
2019-02-23T13:32:13.799Z,20.65
2019-02-23T13:35:01.048Z,20.68
2019-02-23T13:37:41.582Z,20.57
2019-02-23T13:40:20.188Z,20.56
2019-02-23T13:43:31.451Z,20.61
2019-02-23T13:46:23.763Z,20.58
2019-02-23T13:49:19.166Z,20.69
2019-02-23T13:52:15.043Z,20.59
2019-02-23T13:55:18.221Z,20.62
2019-02-23T13:58:22.602Z,20.33
2019-02-23T14:01:33.465Z,20.44
2019-02-23T14:04:54.917Z,20.44
2019-02-23T14:08:05.016Z,20.47
2019-02-23T14:10:49.851Z,20.55
2019-02-23T14:14:08.695Z,20.44
2019-02-23T14:16:52.435Z,20.30
2019-02-23T14:19:52.032Z,20.34
2019-02-23T14:23:07.228Z,20.42
2019-02-23T14:26:06.102Z,20.42
2019-02-23T14:28:59.778Z,20.34
2019-02-23T14:31:51.859Z,20.37
2019-02-23T14:34:55.295Z,20.18
2019-02-23T14:37:59.785Z,20.11
2019-02-23T14:41:03.169Z,20.11
2019-02-23T14:44:15.446Z,20.19
2019-02-23T14:47:26.161Z,20.13
2019-02-23T14:50:20.521Z,20.13
2019-02-23T14:53:27.284Z,20.11
2019-02-23T14:56:29.182Z,20.09
2019-02-23T14:59:08.663Z,20.06
2019-02-23T15:02:30.094Z,20.06
2019-02-23T15:05:30.453Z,20.05
2019-02-23T15:08:22.193Z,20.00
2019-02-23T15:11:24.840Z,19.98
2019-02-23T15:14:51.984Z,19.98
2019-02-23T15:18:00.233Z,19.87
2019-02-23T15:21:03.950Z,19.82
2019-02-23T15:24:11.434Z,19.82
2019-02-23T15:27:57.127Z,19.82
2019-02-23T15:31:16.698Z,19.76
2019-02-23T15:34:40.315Z,19.76
2019-02-23T15:37:42.779Z,19.74
2019-02-23T15:40:46.788Z,19.70
2019-02-23T15:43:47.358Z,19.72
2019-02-23T15:47:00.640Z,19.71
2019-02-23T15:49:34.385Z,19.71
2019-02-23T15:52:08.088Z,19.58
2019-02-23T15:54:39.639Z,19.64
2019-02-23T15:57:11.464Z,19.51
2019-02-23T15:59:44.464Z,19.40
2019-02-23T16:02:16.753Z,19.40
2019-02-23T16:04:48.238Z,19.56
2019-02-23T16:07:20.057Z,19.52
2019-02-23T16:09:51.747Z,19.46
2019-02-23T16:12:23.901Z,19.52
2019-02-23T16:14:55.722Z,19.52
2019-02-23T16:17:27.569Z,19.37
2019-02-23T16:19:59.260Z,19.37
2019-02-23T16:22:31.325Z,19.30
2019-02-23T16:25:03.150Z,19.30
2019-02-23T16:27:35.041Z,19.30
2019-02-23T16:30:07.419Z,19.31
2019-02-23T16:32:39.215Z,19.16
2019-02-23T16:35:11.048Z,19.08
2019-02-23T16:37:42.719Z,19.08
2019-02-23T16:40:14.389Z,19.04
2019-02-23T16:42:45.890Z,19.04
2019-02-23T16:45:17.843Z,19.03
2019-02-23T16:47:49.535Z,18.82
2019-02-23T16:50:21.030Z,18.98
2019-02-23T16:52:52.793Z,18.98
2019-02-23T16:55:24.425Z,19.03
2019-02-23T16:57:56.137Z,18.95
2019-02-23T17:00:28.031Z,18.95
2019-02-23T17:02:59.533Z,19.02
2019-02-23T17:05:31.250Z,18.99
2019-02-23T17:08:02.693Z,18.99
2019-02-23T17:10:34.554Z,18.99
2019-02-23T17:13:06.460Z,18.82
2019-02-23T17:15:38.080Z,18.83
2019-02-23T17:18:10.109Z,18.92
2019-02-23T17:20:41.887Z,18.89
2019-02-23T17:23:13.942Z,18.89
2019-02-23T17:25:45.542Z,18.70
2019-02-23T17:28:17.282Z,18.57
2019-02-23T17:30:48.748Z,18.57
2019-02-23T17:33:20.159Z,18.41
2019-02-23T17:35:52.215Z,18.49
2019-02-23T17:38:23.994Z,18.24
2019-02-23T17:40:55.539Z,18.39
2019-02-23T17:43:27.010Z,18.36
2019-02-23T17:45:58.360Z,18.53
2019-02-23T17:51:01.153Z,18.48
2019-02-23T17:53:33.058Z,18.32
2019-02-23T17:56:10.405Z,18.32
2019-02-23T17:58:38.045Z,18.39
2019-02-23T18:01:09.546Z,18.19
2019-02-23T18:03:41.023Z,18.03
2019-02-23T18:06:12.737Z,18.20
2019-02-23T18:08:44.227Z,18.34
2019-02-23T18:11:15.750Z,18.24
2019-02-23T18:13:48.459Z,18.33
2019-02-23T18:16:21.507Z,18.33
2019-02-23T18:18:53.152Z,18.25
2019-02-23T18:21:24.762Z,18.25
2019-02-23T18:23:55.947Z,18.37
2019-02-23T18:26:27.709Z,18.28
2019-02-23T18:29:01.908Z,18.28
2019-02-23T18:31:33.713Z,17.90
2019-02-23T18:34:05.296Z,17.90
2019-02-23T18:36:37.031Z,17.54
2019-02-23T18:39:08.614Z,17.54
2019-02-23T18:41:40.711Z,17.86
2019-02-23T18:44:12.527Z,18.03
2019-02-23T18:46:43.940Z,17.97
2019-02-23T18:49:15.695Z,17.69
2019-02-23T18:51:47.034Z,17.56
2019-02-23T18:54:18.520Z,17.60
2019-02-23T18:56:50.248Z,17.40
2019-02-23T18:59:21.791Z,17.40
2019-02-23T19:01:53.270Z,17.52
2019-02-23T19:04:24.918Z,17.63
2019-02-23T19:06:56.820Z,17.66
2019-02-23T19:09:28.267Z,17.60
2019-02-23T19:11:59.994Z,17.82
2019-02-23T19:14:31.696Z,17.74
2019-02-23T19:17:03.238Z,17.74
2019-02-23T19:19:35.833Z,17.83
2019-02-23T19:22:07.434Z,17.83
2019-02-23T19:24:39.405Z,17.87
2019-02-23T19:27:11.108Z,17.86
2019-02-23T19:29:42.741Z,17.64
2019-02-23T19:32:14.273Z,17.64
2019-02-23T19:34:45.907Z,17.78
2019-02-23T19:37:17.457Z,17.67
2019-02-23T19:39:49.072Z,17.67
2019-02-23T19:42:21.929Z,17.75
2019-02-23T19:44:53.519Z,17.75
2019-02-23T19:47:28.088Z,17.67
2019-02-23T19:50:03.282Z,17.58
2019-02-23T19:52:35.202Z,17.58
2019-02-23T19:55:07.496Z,17.55
2019-02-23T19:57:40.106Z,17.52
2019-02-23T20:00:11.480Z,17.40
2019-02-23T20:02:43.905Z,17.40
2019-02-23T20:05:15.549Z,17.48
2019-02-23T20:07:47.695Z,17.48
2019-02-23T20:10:19.203Z,17.46
2019-02-23T20:12:50.608Z,17.46
2019-02-23T20:15:22.293Z,17.39
2019-02-23T20:17:54.686Z,17.37
2019-02-23T20:20:26.829Z,17.46
2019-02-23T20:22:59.229Z,17.15
2019-02-23T20:25:30.512Z,17.18
2019-02-23T20:28:01.880Z,17.18
2019-02-23T20:30:33.328Z,17.35
2019-02-23T20:33:04.972Z,17.08
2019-02-23T20:35:36.750Z,17.11
2019-02-23T20:38:08.314Z,17.07
2019-02-23T20:40:41.009Z,17.10
2019-02-23T20:43:12.424Z,16.97
2019-02-23T20:45:43.988Z,16.91
2019-02-23T20:48:15.297Z,16.91
2019-02-23T20:50:46.759Z,17.00
2019-02-23T20:53:18.382Z,17.00
2019-02-23T20:55:50.989Z,17.00
2019-02-23T20:58:22.750Z,16.71
2019-02-23T21:00:54.357Z,16.71
2019-02-23T21:03:25.956Z,16.71
2019-02-23T21:05:57.717Z,16.76
2019-02-23T21:08:29.250Z,16.76
2019-02-23T21:11:00.866Z,16.59
2019-02-23T21:13:32.403Z,16.38
2019-02-23T21:16:04.209Z,16.34
2019-02-23T21:18:35.864Z,16.39
2019-02-23T21:21:07.509Z,16.81
2019-02-23T21:23:39.240Z,16.81
2019-02-23T21:26:10.851Z,16.88
2019-02-23T21:28:42.743Z,16.88
2019-02-23T21:31:14.260Z,16.67
2019-02-23T21:33:46.008Z,16.67
2019-02-23T21:36:17.443Z,16.74
2019-02-23T21:38:49.164Z,16.69
2019-02-23T21:41:21.711Z,16.63
2019-02-23T21:43:53.282Z,16.63
2019-02-23T21:46:24.831Z,16.62
2019-02-23T21:48:56.214Z,16.62
2019-02-23T21:51:27.676Z,16.47
2019-02-23T21:53:59.400Z,16.42
2019-02-23T21:56:30.948Z,16.40
2019-02-23T21:59:03.336Z,16.53
2019-02-23T22:01:34.982Z,16.34
2019-02-23T22:04:06.418Z,16.34
2019-02-23T22:06:37.993Z,16.34
2019-02-23T22:09:09.640Z,16.43
2019-02-23T22:11:41.621Z,16.44
2019-02-23T22:14:13.324Z,16.20
2019-02-23T22:16:44.725Z,16.20
2019-02-23T22:19:16.470Z,16.27
2019-02-23T22:21:48.109Z,16.59
2019-02-23T22:24:19.571Z,16.59
2019-02-23T22:26:50.799Z,16.50
2019-02-23T22:29:22.776Z,16.50
2019-02-23T22:31:54.304Z,16.57
2019-02-23T22:34:26.075Z,16.57
2019-02-23T22:36:57.586Z,16.62
2019-02-23T22:39:29.016Z,16.40
2019-02-23T22:42:00.759Z,16.31
2019-02-23T22:44:32.196Z,16.35
2019-02-23T22:47:03.819Z,16.39
2019-02-23T22:49:35.553Z,16.39
2019-02-23T22:52:08.275Z,16.48
2019-02-23T22:54:39.658Z,16.20
2019-02-23T22:57:11.317Z,16.21
2019-02-23T22:59:44.062Z,16.21
2019-02-23T23:02:15.605Z,16.20
2019-02-23T23:04:48.048Z,16.31
2019-02-23T23:07:20.056Z,16.12
2019-02-23T23:09:51.344Z,16.12
2019-02-23T23:12:22.839Z,16.27
2019-02-23T23:14:54.442Z,16.27
2019-02-23T23:17:26.065Z,16.20
2019-02-23T23:19:57.535Z,16.52
2019-02-23T23:22:29.120Z,16.52
2019-02-23T23:25:00.720Z,16.37
2019-02-23T23:27:32.636Z,16.51
2019-02-23T23:30:05.039Z,16.50
2019-02-23T23:32:36.603Z,16.63
2019-02-23T23:35:08.623Z,16.63
2019-02-23T23:37:40.568Z,16.63
2019-02-23T23:40:12.513Z,16.51
2019-02-23T23:42:44.145Z,16.51
2019-02-23T23:45:15.983Z,16.51
2019-02-23T23:47:47.753Z,16.43
2019-02-23T23:50:19.449Z,16.44
2019-02-23T23:52:51.154Z,16.46
2019-02-23T23:55:23.189Z,16.40
2019-02-23T23:57:58.365Z,16.36
